Time;durP1;ratioP1;P1;durP2;ratioP2;P2;SDS_P1;SDS_P2;PMS_P1;PMS_P2;Temp;Humidity;BMP_temperature;BMP_pressure;BME280_temperature;BME280_humidity;BME280_pressure;Samples;Min_cycle;Max_cycle;Signal;HPM_P1;HPM_P2
2022/09/20 00:00:10;;;;;;;6.27;2.07;;;;;;;;;;5105248;27;20050;-69
2022/09/20 00:02:36;;;;;;;2.97;1.98;;;;;;;;;;5104720;27;20034;-69
2022/09/20 00:05:01;;;;;;;2.63;1.85;;;;;;;;;;5116952;27;20103;-69
2022/09/20 00:07:26;;;;;;;3.10;2.07;;;;;;;;;;5119911;27;20068;-70
2022/09/20 00:09:51;;;;;;;3.07;1.80;;;;;;;;;;5119450;27;20379;-69
2022/09/20 00:12:17;;;;;;;2.43;1.67;;;;;;;;;;5115785;27;20012;-69
2022/09/20 00:14:42;;;;;;;4.03;2.00;;;;;;;;;;5116192;27;20038;-68
2022/09/20 00:17:07;;;;;;;3.23;2.27;;;;;;;;;;5117397;27;20110;-69
2022/09/20 00:19:32;;;;;;;7.43;2.35;;;;;;;;;;5113516;27;20634;-69
2022/09/20 00:21:58;;;;;;;3.47;2.53;;;;;;;;;;5118722;27;20040;-69
2022/09/20 00:24:23;;;;;;;4.03;2.47;;;;;;;;;;5120031;27;20499;-70
2022/09/20 00:26:48;;;;;;;5.53;2.30;;;;;;;;;;5118968;27;20027;-68
2022/09/20 00:29:14;;;;;;;3.93;2.40;;;;;;;;;;5118699;27;20023;-68
2022/09/20 00:31:41;;;;;;;4.33;2.60;;;;;;;;;;5117658;27;20268;-68
2022/09/20 00:36:52;;;;;;;5.80;2.67;;;;;;;;;;5118779;27;20084;-68
2022/09/20 00:39:17;;;;;;;4.97;2.73;;;;;;;;;;5117976;27;20036;-68
2022/09/20 00:41:42;;;;;;;6.80;2.60;;;;;;;;;;5116653;27;20276;-68
2022/09/20 00:44:26;;;;;;;4.50;2.30;;;;;;;;;;5114824;27;20035;-68
2022/09/20 00:46:51;;;;;;;4.10;2.60;;;;;;;;;;5117765;27;20651;-69
2022/09/20 00:49:23;;;;;;;4.67;2.27;;;;;;;;;;5117942;27;20098;-68
2022/09/20 00:51:51;;;;;;;3.70;2.30;;;;;;;;;;5119310;27;20275;-68
2022/09/20 00:54:17;;;;;;;4.13;2.33;;;;;;;;;;5118578;27;20024;-68
2022/09/20 00:56:43;;;;;;;4.13;2.60;;;;;;;;;;5116557;27;20031;-68
2022/09/20 00:59:13;;;;;;;4.65;2.63;;;;;;;;;;5107501;28;20031;-69
2022/09/20 01:01:38;;;;;;;3.38;2.20;;;;;;;;;;5115988;27;20046;-68
2022/09/20 01:04:04;;;;;;;4.00;2.45;;;;;;;;;;5118738;27;20023;-68
2022/09/20 01:06:30;;;;;;;3.70;2.33;;;;;;;;;;5121480;27;20341;-67
2022/09/20 01:08:57;;;;;;;3.70;2.40;;;;;;;;;;5115861;27;20512;-68
2022/09/20 01:11:22;;;;;;;4.70;2.90;;;;;;;;;;5105107;27;20028;-68
2022/09/20 01:13:47;;;;;;;4.95;3.17;;;;;;;;;;5114503;27;20025;-68
2022/09/20 01:16:32;;;;;;;4.90;3.27;;;;;;;;;;5102782;28;20099;-67
2022/09/20 01:18:59;;;;;;;4.35;2.55;;;;;;;;;;5124066;27;20263;-69
2022/09/20 01:21:36;;;;;;;6.78;2.95;;;;;;;;;;5120855;27;20023;-68
2022/09/20 01:24:12;;;;;;;5.03;3.20;;;;;;;;;;5120937;27;20545;-69
2022/09/20 01:26:38;;;;;;;4.97;3.00;;;;;;;;;;5114737;27;20027;-67
2022/09/20 01:29:17;;;;;;;4.47;2.77;;;;;;;;;;5118629;27;20530;-68
2022/09/20 01:31:57;;;;;;;8.27;2.90;;;;;;;;;;5113483;27;20278;-67
2022/09/20 01:34:35;;;;;;;5.55;2.88;;;;;;;;;;5115073;27;20027;-68
2022/09/20 01:37:10;;;;;;;5.78;3.25;;;;;;;;;;5119830;27;20030;-68
2022/09/20 01:39:41;;;;;;;8.57;3.25;;;;;;;;;;5117319;27;20477;-68
2022/09/20 01:42:08;;;;;;;4.80;2.85;;;;;;;;;;5116808;27;20031;-70
2022/09/20 01:44:55;;;;;;;3.55;2.58;;;;;;;;;;5104961;27;20485;-68
2022/09/20 01:47:34;;;;;;;7.60;3.15;;;;;;;;;;5108604;27;20128;-68
2022/09/20 01:50:25;;;;;;;5.72;3.10;;;;;;;;;;5116724;27;20030;-67
2022/09/20 01:53:10;;;;;;;6.13;3.03;;;;;;;;;;5116360;27;20488;-67
2022/09/20 01:55:50;;;;;;;4.28;2.75;;;;;;;;;;5114692;27;20032;-69
2022/09/20 01:58:34;;;;;;;6.63;2.92;;;;;;;;;;5113061;27;20046;-68
2022/09/20 02:01:11;;;;;;;5.90;2.70;;;;;;;;;;5119042;27;20596;-68
2022/09/20 02:03:55;;;;;;;4.55;3.03;;;;;;;;;;5117248;27;20024;-69
2022/09/20 02:06:45;;;;;;;7.03;2.97;;;;;;;;;;5120095;27;20071;-68
2022/09/20 02:09:10;;;;;;;5.68;3.00;;;;;;;;;;5028955;28;20091;-69
2022/09/20 02:11:39;;;;;;;5.17;2.77;;;;;;;;;;5039765;28;20407;-67
2022/09/20 02:14:05;;;;;;;5.57;2.72;;;;;;;;;;5024063;28;20289;-68
2022/09/20 02:16:36;;;;;;;4.72;2.67;;;;;;;;;;5046339;28;20025;-68
2022/09/20 02:19:17;;;;;;;4.10;2.95;;;;;;;;;;5039146;28;20415;-68
2022/09/20 02:21:42;;;;;;;7.38;3.20;;;;;;;;;;5041703;28;20150;-68
2022/09/20 02:24:26;;;;;;;9.63;3.20;;;;;;;;;;5042873;28;20128;-68
2022/09/20 02:27:13;;;;;;;6.05;3.45;;;;;;;;;;5039086;28;20033;-68
2022/09/20 02:29:55;;;;;;;5.63;3.30;;;;;;;;;;5047289;28;20823;-68
2022/09/20 02:32:32;;;;;;;5.60;3.30;;;;;;;;;;5040132;28;20029;-68
2022/09/20 02:35:16;;;;;;;5.38;3.20;;;;;;;;;;5040910;28;20351;-68
2022/09/20 02:37:47;;;;;;;8.27;3.83;;;;;;;;;;5023885;28;20437;-67
2022/09/20 02:40:25;;;;;;;7.55;4.88;;;;;;;;;;5043105;28;20156;-68
2022/09/20 02:43:03;;;;;;;6.68;4.03;;;;;;;;;;5045300;28;20483;-68
2022/09/20 02:45:35;;;;;;;1594.32;183.20;;;;;;;;;;5050266;28;20070;-68
2022/09/20 02:48:03;;;;;;;21.42;13.05;;;;;;;;;;5129882;28;20088;-69
2022/09/20 02:50:37;;;;;;;6.63;4.00;;;;;;;;;;5127882;28;20020;-68
2022/09/20 02:53:06;;;;;;;5.82;3.80;;;;;;;;;;5130715;28;20545;-69
2022/09/20 02:55:31;;;;;;;5.38;3.58;;;;;;;;;;5124751;28;20037;-68
2022/09/20 02:58:08;;;;;;;5.10;3.33;;;;;;;;;;5120414;28;20020;-69
2022/09/20 03:00:54;;;;;;;7.28;4.13;;;;;;;;;;5116861;28;20024;-69
2022/09/20 03:03:22;;;;;;;4.97;3.35;;;;;;;;;;5079771;28;20039;-69
2022/09/20 03:05:56;;;;;;;5.72;3.65;;;;;;;;;;5119978;28;20109;-69
2022/09/20 03:08:28;;;;;;;6.45;3.38;;;;;;;;;;5121396;28;20476;-68
2022/09/20 03:11:17;;;;;;;8.32;3.28;;;;;;;;;;5104944;28;20020;-69
2022/09/20 03:14:22;;;;;;;6.85;3.70;;;;;;;;;;5118245;28;20619;-69
2022/09/20 03:17:08;;;;;;;6.20;3.30;;;;;;;;;;5114463;28;20399;-69
2022/09/20 03:19:52;;;;;;;7.55;3.58;;;;;;;;;;5110656;28;20020;-69
2022/09/20 03:22:18;;;;;;;6.75;3.35;;;;;;;;;;5106129;28;20074;-69
2022/09/20 03:25:11;;;;;;;6.13;2.95;;;;;;;;;;5101834;28;20051;-69
2022/09/20 03:27:55;;;;;;;6.05;3.40;;;;;;;;;;5115095;28;20020;-69
2022/09/20 03:30:35;;;;;;;4.50;3.25;;;;;;;;;;5107892;27;20126;-68
2022/09/20 03:33:10;;;;;;;6.82;3.75;;;;;;;;;;5123124;27;20032;-70
2022/09/20 03:35:48;;;;;;;6.15;3.30;;;;;;;;;;5111207;27;20048;-69
2022/09/20 03:38:38;;;;;;;5.13;3.63;;;;;;;;;;5106745;27;20024;-69
2022/09/20 03:41:33;;;;;;;6.32;3.72;;;;;;;;;;5120942;27;20038;-69
2022/09/20 03:44:08;;;;;;;6.18;4.00;;;;;;;;;;5101097;27;20031;-69
2022/09/20 03:46:33;;;;;;;9.63;4.25;;;;;;;;;;5118987;27;20113;-69
2022/09/20 03:49:02;;;;;;;7.00;3.93;;;;;;;;;;5106132;27;20114;-68
2022/09/20 03:51:42;;;;;;;6.85;4.15;;;;;;;;;;5107385;27;20032;-68
2022/09/20 03:54:26;;;;;;;7.30;3.83;;;;;;;;;;5121774;27;20023;-69
2022/09/20 03:56:54;;;;;;;6.82;4.15;;;;;;;;;;5111570;27;20020;-69
2022/09/20 03:59:39;;;;;;;7.43;4.13;;;;;;;;;;5119432;27;20072;-68
2022/09/20 04:02:10;;;;;;;5.75;4.07;;;;;;;;;;5117886;27;20024;-68
2022/09/20 04:04:40;;;;;;;7.63;4.10;;;;;;;;;;5110194;27;20489;-68
2022/09/20 04:07:11;;;;;;;6.32;4.20;;;;;;;;;;5118319;27;20035;-69
2022/09/20 04:09:42;;;;;;;7.80;3.80;;;;;;;;;;5115578;27;20484;-69
2022/09/20 04:12:13;;;;;;;9.15;4.45;;;;;;;;;;5122441;27;20487;-68
2022/09/20 04:14:42;;;;;;;5.22;3.88;;;;;;;;;;5119042;27;20019;-68
2022/09/20 04:17:19;;;;;;;6.85;4.25;;;;;;;;;;5103184;27;20401;-68
2022/09/20 04:20:03;;;;;;;11.70;8.43;;;;;;;;;;5118497;27;20034;-68
2022/09/20 04:22:29;;;;;;;13.88;10.25;;;;;;;;;;5118456;27;20096;-68
2022/09/20 04:24:59;;;;;;;16.73;11.73;;;;;;;;;;5120992;27;20499;-68
2022/09/20 04:27:24;;;;;;;8.80;6.00;;;;;;;;;;5118220;27;20034;-67
2022/09/20 04:30:05;;;;;;;6.50;4.23;;;;;;;;;;5118475;27;20156;-66
2022/09/20 04:32:30;;;;;;;8.25;3.90;;;;;;;;;;5123272;27;20733;-68
2022/09/20 04:38:07;;;;;;;6.82;3.88;;;;;;;;;;5050221;28;20499;-69
2022/09/20 04:40:51;;;;;;;8.18;4.07;;;;;;;;;;5031036;28;20518;-68
2022/09/20 04:43:23;;;;;;;6.60;4.03;;;;;;;;;;5030278;28;20518;-69
2022/09/20 04:45:57;;;;;;;7.50;3.95;;;;;;;;;;5049496;28;20419;-68
2022/09/20 04:48:22;;;;;;;7.63;4.03;;;;;;;;;;5047253;28;20033;-68
2022/09/20 04:50:50;;;;;;;7.27;4.20;;;;;;;;;;5047062;28;20032;-69
2022/09/20 04:53:33;;;;;;;8.90;4.07;;;;;;;;;;5045453;28;20041;-69
2022/09/20 04:55:59;;;;;;;7.07;3.83;;;;;;;;;;5042421;28;20037;-69
2022/09/20 04:58:35;;;;;;;7.40;3.80;;;;;;;;;;5048522;28;20033;-69
2022/09/20 05:01:29;;;;;;;5.65;3.97;;;;;;;;;;5025519;28;20403;-70
2022/09/20 05:04:09;;;;;;;9.00;4.07;;;;;;;;;;5027631;28;20036;-68
2022/09/20 05:06:51;;;;;;;7.70;4.30;;;;;;;;;;5044071;28;20102;-70
2022/09/20 05:09:19;;;;;;;6.25;4.13;;;;;;;;;;5029919;28;20125;-68
2022/09/20 05:12:04;;;;;;;8.50;4.20;;;;;;;;;;5075012;27;20046;-70
2022/09/20 05:14:33;;;;;;;7.25;4.55;;;;;;;;;;5118071;27;20030;-66
2022/09/20 05:17:40;;;;;;;10.38;4.90;;;;;;;;;;5110490;27;20071;-68
2022/09/20 05:20:13;;;;;;;9.27;5.57;;;;;;;;;;5120067;27;20497;-66
2022/09/20 05:22:44;;;;;;;10.85;5.07;;;;;;;;;;5103298;27;20046;-67
2022/09/20 05:25:18;;;;;;;10.50;5.20;;;;;;;;;;5119499;27;20031;-68
2022/09/20 05:27:50;;;;;;;12.88;5.40;;;;;;;;;;5114244;27;20027;-69
2022/09/20 05:30:21;;;;;;;9.95;5.47;;;;;;;;;;5103664;27;20038;-69
2022/09/20 05:32:47;;;;;;;7.40;4.47;;;;;;;;;;5119643;27;20019;-68
2022/09/20 05:35:31;;;;;;;6.32;4.38;;;;;;;;;;5116937;27;20023;-66
2022/09/20 05:38:04;;;;;;;8.18;5.60;;;;;;;;;;5116494;27;20391;-69
2022/09/20 05:40:38;;;;;;;7.97;4.90;;;;;;;;;;5115317;27;20061;-68
2022/09/20 05:43:12;;;;;;;9.10;4.15;;;;;;;;;;5112859;27;20027;-68
2022/09/20 05:45:55;;;;;;;8.65;4.80;;;;;;;;;;5116501;27;20076;-70
2022/09/20 05:48:25;;;;;;;8.88;4.47;;;;;;;;;;5119365;27;20024;-69
2022/09/20 05:50:50;;;;;;;;;;;;;;;;;;5120530;27;20031;-69
2022/09/20 05:53:18;;;;;;;5.28;3.92;;;;;;;;;;5117429;27;19919;-68
2022/09/20 05:58:48;;;;;;;5.03;3.42;;;;;;;;;;5107815;27;20327;-68
2022/09/20 06:01:25;;;;;;;5.90;3.38;;;;;;;;;;5112355;27;20032;-69
2022/09/20 06:04:31;;;;;;;5.25;3.25;;;;;;;;;;5112443;27;20027;-68
2022/09/20 06:07:09;;;;;;;6.25;3.25;;;;;;;;;;5117630;27;20027;-69
2022/09/20 06:09:40;;;;;;;5.90;2.78;;;;;;;;;;5118149;27;20492;-69
2022/09/20 06:12:26;;;;;;;4.07;2.90;;;;;;;;;;5115100;27;20442;-68
2022/09/20 06:15:10;;;;;;;6.35;2.88;;;;;;;;;;5120570;27;20430;-68
2022/09/20 06:17:39;;;;;;;6.57;2.65;;;;;;;;;;5119489;27;20019;-69
2022/09/20 06:20:24;;;;;;;2.97;2.28;;;;;;;;;;5120041;27;20027;-68
2022/09/20 06:22:53;;;;;;;5.05;2.80;;;;;;;;;;5115423;27;20040;-69
2022/09/20 06:25:24;;;;;;;5.25;2.88;;;;;;;;;;5117162;28;20030;-68
2022/09/20 06:27:51;;;;;;;8.80;2.33;;;;;;;;;;5117866;28;20030;-68
2022/09/20 06:30:19;;;;;;;4.65;2.90;;;;;;;;;;5119509;28;20106;-70
2022/09/20 06:32:54;;;;;;;9.23;2.50;;;;;;;;;;5116418;28;20385;-70
2022/09/20 06:35:21;;;;;;;2.97;2.17;;;;;;;;;;5142927;28;20015;-69
2022/09/20 06:43:27;;;;;;;4.65;1.92;;;;;;;;;;5139997;28;20050;-68
2022/09/20 06:45:52;;;;;;;1.90;1.63;;;;;;;;;;5139631;28;20008;-69
2022/09/20 06:48:18;;;;;;;3.20;1.80;;;;;;;;;;5126165;28;20042;-69
2022/09/20 06:50:44;;;;;;;4.88;1.90;;;;;;;;;;5112546;28;20275;-70
2022/09/20 06:53:13;;;;;;;5.43;1.75;;;;;;;;;;5116716;28;20040;-69
2022/09/20 06:55:42;;;;;;;;;;;;;;;;;;5118247;28;20051;-68
2022/09/20 06:58:10;;;;;;;2.45;1.77;;;;;;;;;;5097798;28;20394;-68
2022/09/20 07:00:35;;;;;;;7.03;2.05;;;;;;;;;;5107736;28;20228;-68
2022/09/20 07:03:01;;;;;;;1.95;1.67;;;;;;;;;;5114309;28;20102;-66
2022/09/20 07:05:31;;;;;;;3.35;1.65;;;;;;;;;;5118110;27;20023;-65
2022/09/20 07:07:57;;;;;;;3.60;1.60;;;;;;;;;;5113278;27;20028;-67
2022/09/20 07:10:23;;;;;;;3.42;1.90;;;;;;;;;;5119229;27;20023;-68
2022/09/20 07:12:48;;;;;;;3.97;1.77;;;;;;;;;;5117483;27;20385;-67
2022/09/20 07:15:15;;;;;;;2.88;1.90;;;;;;;;;;5119888;27;20104;-67
2022/09/20 07:17:44;;;;;;;3.05;1.90;;;;;;;;;;5118191;27;20591;-68
2022/09/20 07:20:09;;;;;;;5.30;2.13;;;;;;;;;;5109103;27;20031;-69
2022/09/20 07:22:35;;;;;;;2.50;1.85;;;;;;;;;;5117726;27;20370;-69
2022/09/20 07:25:01;;;;;;;6.50;2.00;;;;;;;;;;5124790;27;20487;-69
2022/09/20 07:27:26;;;;;;;3.38;2.00;;;;;;;;;;5120214;27;20019;-69
2022/09/20 07:29:52;;;;;;;6.15;2.25;;;;;;;;;;5118896;27;20095;-69
2022/09/20 07:32:17;;;;;;;4.77;1.73;;;;;;;;;;5119670;27;20024;-69
2022/09/20 07:34:42;;;;;;;3.38;2.10;;;;;;;;;;5117199;27;20032;-69
2022/09/20 07:37:07;;;;;;;4.23;1.93;;;;;;;;;;5116259;27;20035;-69
2022/09/20 07:39:32;;;;;;;2.90;1.60;;;;;;;;;;5107926;27;20022;-69
2022/09/20 07:41:58;;;;;;;5.53;1.80;;;;;;;;;;5114777;27;20027;-68
2022/09/20 07:44:23;;;;;;;3.03;1.60;;;;;;;;;;5117543;27;20216;-68
2022/09/20 07:46:56;;;;;;;4.05;1.98;;;;;;;;;;5107587;27;20279;-69
2022/09/20 07:49:22;;;;;;;5.35;1.77;;;;;;;;;;5122699;27;20027;-69
2022/09/20 07:51:48;;;;;;;2.97;1.90;;;;;;;;;;5120350;27;20069;-70
2022/09/20 07:54:14;;;;;;;2.70;1.80;;;;;;;;;;5114813;27;20050;-70
2022/09/20 07:56:39;;;;;;;3.90;1.70;;;;;;;;;;5119496;27;20054;-69
2022/09/20 07:59:05;;;;;;;3.70;1.85;;;;;;;;;;5122868;27;20034;-70
2022/09/20 08:01:30;;;;;;;4.07;2.30;;;;;;;;;;5107268;27;20057;-70
2022/09/20 08:03:56;;;;;;;3.30;1.73;;;;;;;;;;5117773;27;20037;-70
2022/09/20 08:06:21;;;;;;;3.72;1.80;;;;;;;;;;5122585;27;20577;-68
2022/09/20 08:08:47;;;;;;;3.28;1.70;;;;;;;;;;5117805;27;20032;-69
2022/09/20 08:11:16;;;;;;;2.83;1.77;;;;;;;;;;5121978;27;20476;-70
2022/09/20 08:13:46;;;;;;;3.05;1.73;;;;;;;;;;5113721;27;20104;-71
2022/09/20 08:16:14;;;;;;;5.20;1.80;;;;;;;;;;5112395;27;20119;-70
2022/09/20 08:18:45;;;;;;;3.03;2.10;;;;;;;;;;5120492;27;20066;-67
2022/09/20 08:21:11;;;;;;;4.00;1.88;;;;;;;;;;5111391;27;20023;-70
2022/09/20 08:23:37;;;;;;;4.50;1.95;;;;;;;;;;5123700;27;20370;-68
2022/09/20 08:26:03;;;;;;;3.30;1.70;;;;;;;;;;5116516;27;20481;-66
2022/09/20 08:28:28;;;;;;;1.90;1.52;;;;;;;;;;5113530;27;20029;-67
2022/09/20 08:30:59;;;;;;;4.55;1.85;;;;;;;;;;5105533;27;20504;-67
2022/09/20 08:33:25;;;;;;;2.35;1.40;;;;;;;;;;5116675;27;20065;-66
2022/09/20 08:35:50;;;;;;;4.03;1.50;;;;;;;;;;5116782;27;20031;-67
2022/09/20 08:38:15;;;;;;;2.43;1.80;;;;;;;;;;5121351;27;20039;-66
2022/09/20 08:40:40;;;;;;;4.47;1.77;;;;;;;;;;5115675;27;20039;-68
2022/09/20 08:43:07;;;;;;;3.63;1.60;;;;;;;;;;5118640;27;20031;-67
2022/09/20 08:45:32;;;;;;;4.05;1.85;;;;;;;;;;5097817;27;20686;-67
2022/09/20 08:47:59;;;;;;;3.40;1.70;;;;;;;;;;5116782;27;20024;-67
2022/09/20 08:50:25;;;;;;;5.55;2.03;;;;;;;;;;5109258;27;20030;-67
2022/09/20 08:52:52;;;;;;;2.67;1.50;;;;;;;;;;5121573;27;20407;-68
2022/09/20 08:55:22;;;;;;;4.70;1.77;;;;;;;;;;5114842;27;20032;-66
2022/09/20 08:57:49;;;;;;;3.63;2.10;;;;;;;;;;5120376;27;20634;-66
2022/09/20 09:00:16;;;;;;;4.63;1.52;;;;;;;;;;5119204;27;20051;-68
2022/09/20 09:02:42;;;;;;;2.50;1.70;;;;;;;;;;5117637;27;20024;-68
2022/09/20 09:05:25;;;;;;;1.80;1.40;;;;;;;;;;5115356;27;20030;-65
2022/09/20 09:07:51;;;;;;;3.13;1.83;;;;;;;;;;5116078;27;20016;-67
2022/09/20 09:10:16;;;;;;;3.53;1.60;;;;;;;;;;5118574;27;20097;-67
2022/09/20 09:12:42;;;;;;;3.33;1.70;;;;;;;;;;5117982;27;20817;-67
2022/09/20 09:15:20;;;;;;;2.00;1.60;;;;;;;;;;5112806;27;20366;-68
2022/09/20 09:17:45;;;;;;;1.75;1.38;;;;;;;;;;5114353;27;20043;-65
2022/09/20 09:20:20;;;;;;;4.00;1.60;;;;;;;;;;5119835;27;20315;-65
2022/09/20 09:22:46;;;;;;;3.20;1.70;;;;;;;;;;5114000;27;20077;-66
2022/09/20 09:25:17;;;;;;;4.22;1.70;;;;;;;;;;5118194;27;20027;-66
2022/09/20 09:27:56;;;;;;;2.88;1.80;;;;;;;;;;5113955;27;20028;-66
2022/09/20 09:30:25;;;;;;;2.47;1.38;;;;;;;;;;5102975;27;20020;-65
2022/09/20 09:32:50;;;;;;;2.80;1.38;;;;;;;;;;5100763;27;20051;-66
2022/09/20 09:35:28;;;;;;;2.58;1.52;;;;;;;;;;5111245;27;20384;-65
2022/09/20 09:38:00;;;;;;;2.13;1.35;;;;;;;;;;5119414;27;20405;-66
2022/09/20 09:40:26;;;;;;;2.50;1.38;;;;;;;;;;5118093;27;20077;-67
2022/09/20 09:42:56;;;;;;;4.22;1.40;;;;;;;;;;5103450;27;20031;-67
2022/09/20 09:45:37;;;;;;;3.03;1.70;;;;;;;;;;5120015;27;20354;-67
2022/09/20 09:48:16;;;;;;;6.10;1.55;;;;;;;;;;5107717;27;20023;-66
2022/09/20 09:50:41;;;;;;;3.92;1.73;;;;;;;;;;5117946;27;20035;-66
2022/09/20 09:53:10;;;;;;;3.53;1.97;;;;;;;;;;5121973;27;20431;-66
2022/09/20 09:55:42;;;;;;;2.92;1.40;;;;;;;;;;5117761;27;20050;-66
2022/09/20 09:58:15;;;;;;;2.90;1.60;;;;;;;;;;5133578;27;20053;-65
2022/09/20 10:00:45;;;;;;;1.98;1.35;;;;;;;;;;5128614;27;20019;-66
2022/09/20 10:03:10;;;;;;;2.22;1.40;;;;;;;;;;5131332;27;20062;-66
2022/09/20 10:05:41;;;;;;;2.30;1.60;;;;;;;;;;5125136;27;20039;-65
2022/09/20 10:08:19;;;;;;;4.30;1.42;;;;;;;;;;5111189;28;20034;-65
2022/09/20 10:10:48;;;;;;;1.40;1.30;;;;;;;;;;5124236;27;20019;-66
2022/09/20 10:13:21;;;;;;;1.52;1.38;;;;;;;;;;5104474;27;20015;-65
2022/09/20 10:15:53;;;;;;;3.50;1.20;;;;;;;;;;5122017;27;20031;-64
2022/09/20 10:18:27;;;;;;;1.58;1.40;;;;;;;;;;5111860;28;20384;-65
2022/09/20 10:21:11;;;;;;;2.13;1.40;;;;;;;;;;5115795;28;20055;-65
2022/09/20 10:23:45;;;;;;;2.22;1.45;;;;;;;;;;5117801;28;20047;-66
2022/09/20 10:26:19;;;;;;;4.15;1.40;;;;;;;;;;5112600;28;20142;-66
2022/09/20 10:28:49;;;;;;;2.00;1.20;;;;;;;;;;5119348;28;20055;-66
2022/09/20 10:31:34;;;;;;;3.33;1.50;;;;;;;;;;5115741;28;20154;-64
2022/09/20 10:34:15;;;;;;;2.28;1.30;;;;;;;;;;5113096;28;20036;-65
2022/09/20 10:36:42;;;;;;;1.25;1.10;;;;;;;;;;5115011;28;20033;-66
2022/09/20 10:39:10;;;;;;;1.23;1.00;;;;;;;;;;5124025;27;20380;-66
2022/09/20 10:44:38;;;;;;;1.25;1.00;;;;;;;;;;5123221;27;20060;-66
2022/09/20 10:47:14;;;;;;;1.37;1.00;;;;;;;;;;5100872;27;20027;-65
2022/09/20 10:49:52;;;;;;;1.55;1.10;;;;;;;;;;5109954;27;20029;-67
2022/09/20 10:52:26;;;;;;;3.63;1.42;;;;;;;;;;5120917;27;20030;-67
2022/09/20 10:55:02;;;;;;;5.50;1.60;;;;;;;;;;5101052;27;20105;-68
2022/09/20 10:57:30;;;;;;;4.00;1.33;;;;;;;;;;5119631;27;20026;-64
2022/09/20 10:59:58;;;;;;;2.47;1.40;;;;;;;;;;5127761;27;20039;-67
2022/09/20 11:02:23;;;;;;;8.73;1.50;;;;;;;;;;5119259;27;20630;-67
2022/09/20 11:05:07;;;;;;;2.30;1.20;;;;;;;;;;5121112;27;20148;-67
2022/09/20 11:07:49;;;;;;;2.50;1.33;;;;;;;;;;5115216;27;20106;-66
2022/09/20 11:10:14;;;;;;;1.70;1.40;;;;;;;;;;5111039;27;20058;-65
2022/09/20 11:12:43;;;;;;;1.90;1.03;;;;;;;;;;5119453;27;20051;-64
2022/09/20 11:15:18;;;;;;;2.58;1.40;;;;;;;;;;5120416;27;20329;-64
2022/09/20 11:17:58;;;;;;;5.07;1.45;;;;;;;;;;5119678;27;20059;-64
2022/09/20 11:20:29;;;;;;;2.88;1.13;;;;;;;;;;5119325;27;20369;-65
2022/09/20 11:23:05;;;;;;;1.58;1.23;;;;;;;;;;5117457;27;20039;-65
2022/09/20 11:25:37;;;;;;;2.63;1.08;;;;;;;;;;5119282;27;20523;-67
2022/09/20 11:28:18;;;;;;;1.17;0.93;;;;;;;;;;5118900;27;20019;-65
2022/09/20 11:30:52;;;;;;;3.10;1.02;;;;;;;;;;5107323;27;20050;-65
2022/09/20 11:33:24;;;;;;;1.42;0.90;;;;;;;;;;5119088;27;20027;-65
2022/09/20 11:35:56;;;;;;;4.10;1.20;;;;;;;;;;5121931;27;20031;-66
2022/09/20 11:38:22;;;;;;;2.97;1.00;;;;;;;;;;5107442;27;20027;-67
2022/09/20 11:40:48;;;;;;;1.55;0.90;;;;;;;;;;5116709;27;20119;-66
2022/09/20 11:43:15;;;;;;;2.85;0.90;;;;;;;;;;5107290;27;20027;-67
2022/09/20 11:45:42;;;;;;;2.10;1.10;;;;;;;;;;5118592;27;20031;-66
2022/09/20 11:48:17;;;;;;;0.93;0.82;;;;;;;;;;5119967;27;20094;-66
2022/09/20 11:51:01;;;;;;;1.70;1.00;;;;;;;;;;5112821;27;20031;-67
2022/09/20 11:53:26;;;;;;;1.35;1.00;;;;;;;;;;5116155;27;20027;-66
2022/09/20 11:56:14;;;;;;;4.13;1.17;;;;;;;;;;5117571;27;20099;-68
2022/09/20 11:58:47;;;;;;;8.85;1.20;;;;;;;;;;5106276;27;20039;-67
2022/09/20 12:01:14;;;;;;;6.60;1.13;;;;;;;;;;5123003;27;20024;-68
2022/09/20 12:03:40;;;;;;;8.85;4.80;;;;;;;;;;5118992;27;20032;-68
2022/09/20 12:06:24;;;;;;;1.45;1.23;;;;;;;;;;5121673;27;20038;-67
2022/09/20 12:08:50;;;;;;;1.88;1.17;;;;;;;;;;5120261;27;20149;-66
2022/09/20 12:11:16;;;;;;;2.00;1.08;;;;;;;;;;5115875;27;20055;-65
2022/09/20 12:13:54;;;;;;;2.80;1.10;;;;;;;;;;5117127;27;20033;-68
2022/09/20 12:16:39;;;;;;;4.10;1.10;;;;;;;;;;5117137;27;20034;-67
2022/09/20 12:19:06;;;;;;;2.47;1.00;;;;;;;;;;5114471;27;20520;-66
2022/09/20 12:21:51;;;;;;;2.47;1.10;;;;;;;;;;5115788;27;20149;-66
2022/09/20 12:24:18;;;;;;;1.73;0.90;;;;;;;;;;5109890;27;20058;-66
2022/09/20 12:26:44;;;;;;;3.67;0.85;;;;;;;;;;5120486;27;20530;-66
2022/09/20 12:29:25;;;;;;;0.95;0.88;;;;;;;;;;5106256;27;20027;-67
2022/09/20 12:31:55;;;;;;;0.80;0.73;;;;;;;;;;5117786;27;20718;-67
2022/09/20 12:34:20;;;;;;;;;;;;;;;;;;5121686;27;20042;-67
2022/09/20 12:36:54;;;;;;;1.40;1.17;;;;;;;;;;5118620;27;19915;-67
2022/09/20 12:39:38;;;;;;;1.35;1.05;;;;;;;15.43;nan;100630.75;5118059;27;20027;-65
2022/09/20 12:42:13;;;;;;;1.52;1.10;;;;;;;;;;5119953;27;20061;-68
2022/09/20 12:44:50;;;;;;;2.08;0.90;;;;;;;;;;5108915;27;20028;-66
2022/09/20 12:47:23;;;;;;;1.25;0.77;;;;;;;;;;5118276;27;20056;-70
2022/09/20 12:52:56;;;;;;;6.05;0.88;;;;;;;;;;5123650;27;20026;-70
2022/09/20 12:55:25;;;;;;;5.07;1.00;;;;;;;;;;5121091;27;20023;-68
2022/09/20 12:57:57;;;;;;;1.05;0.82;;;;;;;;;;5119867;27;20115;-69
2022/09/20 13:00:37;;;;;;;1.85;0.85;;;;;;;;;;5102098;27;20043;-70
2022/09/20 13:03:15;;;;;;;2.40;0.80;;;;;;;;;;5114474;27;20035;-70
2022/09/20 13:05:51;;;;;;;0.77;0.68;;;;;;;;;;5115812;27;20055;-71
2022/09/20 13:08:16;;;;;;;2.38;1.08;;;;;;;;;;5116186;27;20164;-70
2022/09/20 13:11:11;;;;;;;1.15;0.70;;;;;;;;;;5116971;27;20684;-70
2022/09/20 13:13:36;;;;;;;0.80;0.80;;;;;;;;;;5119717;27;20114;-71
2022/09/20 13:16:04;;;;;;;2.70;1.50;;;;;;;;;;5114699;27;20098;-71
2022/09/20 13:18:30;;;;;;;1.42;0.75;;;;;;;;;;5117001;27;20030;-69
2022/09/20 13:20:56;;;;;;;0.95;0.80;;;;;;;;;;5104156;27;20541;-69
2022/09/20 13:23:26;;;;;;;1.83;1.00;;;;;;;16.71;nan;100531.41;5120094;27;20352;-71
2022/09/20 13:25:52;;;;;;;2.67;0.90;;;;;;;;;;5135601;27;20023;-73
2022/09/20 13:28:39;;;;;;;4.85;1.70;;;;;;;;;;5138745;27;20185;-70
2022/09/20 13:31:20;;;;;;;3.10;1.00;;;;;;;;;;5122068;27;20044;-71
2022/09/20 13:33:45;;;;;;;1.77;0.95;;;;;;;;;;5139191;27;20096;-71
2022/09/20 13:36:11;;;;;;;5.53;0.98;;;;;;;16.54;nan;100582.13;5143235;27;20039;-70
2022/09/20 13:38:37;;;;;;;6.28;1.15;;;;;;;;;;5142004;27;20465;-70
2022/09/20 13:41:08;;;;;;;2.28;0.90;;;;;;;;;;5113649;27;20035;-70
2022/09/20 13:43:44;;;;;;;1.48;0.90;;;;;;;;;;5116223;27;20070;-70
2022/09/20 13:46:09;;;;;;;0.80;0.80;;;;;;;;;;5121708;27;20031;-72
2022/09/20 13:48:34;;;;;;;4.53;1.20;;;;;;;;;;5109618;27;20045;-69
2022/09/20 13:51:00;;;;;;;1.90;0.80;;;;;;;;;;5110550;27;20169;-69
2022/09/20 13:53:26;;;;;;;3.17;1.10;;;;;;;;;;5114876;27;20027;-70
2022/09/20 13:55:53;;;;;;;3.63;1.00;;;;;;;;;;5122246;27;20289;-70
2022/09/20 13:58:32;;;;;;;2.03;0.90;;;;;;;;;;5113980;27;20124;-70
2022/09/20 14:01:02;;;;;;;7.60;1.30;;;;;;;;;;5104106;27;20025;-70
2022/09/20 14:03:28;;;;;;;2.65;1.10;;;;;;;;;;5118540;27;20102;-70
2022/09/20 14:05:54;;;;;;;5.15;0.90;;;;;;;;;;5116526;27;20108;-69
2022/09/20 14:08:23;;;;;;;2.00;0.98;;;;;;;;;;5118590;27;20051;-71
2022/09/20 14:10:49;;;;;;;2.47;1.10;;;;;;;;;;5107592;27;20034;-70
2022/09/20 14:13:15;;;;;;;1.65;1.00;;;;;;;;;;5114508;27;20073;-70
2022/09/20 14:15:45;;;;;;;3.55;1.00;;;;;;;;;;5117425;27;20027;-70
2022/09/20 14:18:15;;;;;;;2.47;1.00;;;;;;;;;;5119890;27;20027;-71
2022/09/20 14:20:42;;;;;;;1.50;1.05;;;;;;;;;;5115154;28;20446;-71
2022/09/20 14:23:20;;;;;;;3.05;1.40;;;;;;;;;;5104670;28;20799;-70
2022/09/20 14:26:06;;;;;;;3.92;1.25;;;;;;;;;;5117628;27;20394;-69
2022/09/20 14:28:32;;;;;;;4.25;1.35;;;;;;;16.00;nan;100539.06;5118644;28;20019;-70
2022/09/20 14:31:20;;;;;;;4.00;1.10;;;;;;;16.06;nan;100610.53;5116466;28;20032;-70
2022/09/20 14:33:50;;;;;;;1.05;0.95;;;;;;;;;;5118770;28;20185;-70
2022/09/20 14:36:15;;;;;;;;;;;;;;;;;;5113814;28;20055;-69
2022/09/20 14:38:44;;;;;;;4.30;1.00;;;;;;;;;;5118158;28;19959;-70
2022/09/20 14:41:09;;;;;;;;;;;;;;;;;;5107766;28;20050;-71
2022/09/20 14:43:35;;;;;;;1.13;0.70;;;;;;;15.79;nan;100585.94;5118862;28;19962;-71
2022/09/20 14:46:02;;;;;;;1.77;0.95;;;;;;;;;;5116951;28;20038;-70
2022/09/20 14:48:32;;;;;;;1.85;0.80;;;;;;;;;;5113990;28;20063;-72
2022/09/20 14:51:09;;;;;;;2.63;0.95;;;;;;;;;;5115870;28;20405;-72
2022/09/20 14:53:37;;;;;;;4.40;1.08;;;;;;;;;;5115919;28;20027;-72
2022/09/20 14:56:05;;;;;;;1.90;0.93;;;;;;;;;;5104845;28;20102;-72
2022/09/20 14:58:30;;;;;;;4.65;1.20;;;;;;;;;;5118136;28;20019;-71
2022/09/20 15:01:02;;;;;;;6.13;1.70;;;;;;;;;;5114256;28;20036;-72
2022/09/20 15:03:37;;;;;;;2.08;1.50;;;;;;;;;;5117633;28;20030;-71
2022/09/20 15:06:03;;;;;;;2.83;1.10;;;;;;;;;;5115731;28;20440;-71
2022/09/20 15:08:28;;;;;;;1.27;1.00;;;;;;;;;;5115526;28;20029;-73
2022/09/20 15:10:53;;;;;;;2.70;1.02;;;;;;;;;;5115420;28;20448;-73
2022/09/20 15:13:19;;;;;;;1.53;0.90;;;;;;;;;;5117612;28;20042;-72
2022/09/20 15:15:48;;;;;;;2.53;1.10;;;;;;;;;;5114357;28;20114;-72
2022/09/20 15:18:17;;;;;;;2.20;0.95;;;;;;;;;;5113263;28;20355;-73
2022/09/20 15:20:42;;;;;;;1.52;0.90;;;;;;;;;;5113808;28;20051;-72
2022/09/20 15:23:08;;;;;;;2.07;1.13;;;;;;;;;;5116255;28;20075;-72
2022/09/20 15:25:33;;;;;;;1.25;0.90;;;;;;;;;;5097350;27;20024;-72
2022/09/20 15:27:59;;;;;;;2.97;0.80;;;;;;;;;;5122424;27;20130;-72